sensor_id;sensor_type;location;lat;lon;timestamp;P1;durP1;ratioP1;P2;durP2;ratioP2
17510;SDS011;8873;48.818;9.422;2023-06-14T00:01:22;5.30;;;3.72;;
17510;SDS011;8873;48.818;9.422;2023-06-14T00:03:50;5.45;;;3.83;;
17510;SDS011;8873;48.818;9.422;2023-06-14T00:06:18;3.63;;;3.28;;
17510;SDS011;8873;48.818;9.422;2023-06-14T00:08:46;5.45;;;3.90;;
17510;SDS011;8873;48.818;9.422;2023-06-14T00:11:13;4.57;;;3.53;;
17510;SDS011;8873;48.818;9.422;2023-06-14T00:13:42;6.75;;;3.60;;
17510;SDS011;8873;48.818;9.422;2023-06-14T00:16:10;5.85;;;4.03;;
17510;SDS011;8873;48.818;9.422;2023-06-14T00:18:38;4.88;;;3.60;;
17510;SDS011;8873;48.818;9.422;2023-06-14T00:21:05;11.77;;;4.13;;
17510;SDS011;8873;48.818;9.422;2023-06-14T00:23:32;4.70;;;3.63;;
17510;SDS011;8873;48.818;9.422;2023-06-14T00:26:00;4.47;;;4.07;;
17510;SDS011;8873;48.818;9.422;2023-06-14T00:28:27;7.47;;;3.97;;
17510;SDS011;8873;48.818;9.422;2023-06-14T00:30:56;7.18;;;4.07;;
17510;SDS011;8873;48.818;9.422;2023-06-14T00:33:24;4.97;;;3.90;;
17510;SDS011;8873;48.818;9.422;2023-06-14T00:35:52;5.80;;;3.88;;
17510;SDS011;8873;48.818;9.422;2023-06-14T00:38:20;5.45;;;3.60;;
17510;SDS011;8873;48.818;9.422;2023-06-14T00:40:48;7.07;;;3.70;;
17510;SDS011;8873;48.818;9.422;2023-06-14T00:43:15;4.63;;;3.80;;
17510;SDS011;8873;48.818;9.422;2023-06-14T00:45:43;6.03;;;3.72;;
17510;SDS011;8873;48.818;9.422;2023-06-14T00:48:12;8.63;;;3.95;;
17510;SDS011;8873;48.818;9.422;2023-06-14T00:50:41;5.18;;;3.83;;
17510;SDS011;8873;48.818;9.422;2023-06-14T00:53:11;6.63;;;3.85;;
17510;SDS011;8873;48.818;9.422;2023-06-14T00:55:41;3.90;;;3.50;;
17510;SDS011;8873;48.818;9.422;2023-06-14T00:58:09;6.65;;;4.25;;
17510;SDS011;8873;48.818;9.422;2023-06-14T01:00:37;5.45;;;3.85;;
17510;SDS011;8873;48.818;9.422;2023-06-14T01:03:04;5.10;;;3.97;;
17510;SDS011;8873;48.818;9.422;2023-06-14T01:05:34;4.85;;;3.83;;
17510;SDS011;8873;48.818;9.422;2023-06-14T01:08:05;6.45;;;3.65;;
17510;SDS011;8873;48.818;9.422;2023-06-14T01:10:36;4.75;;;4.00;;
17510;SDS011;8873;48.818;9.422;2023-06-14T01:13:07;4.68;;;3.72;;
17510;SDS011;8873;48.818;9.422;2023-06-14T01:15:36;5.65;;;4.15;;
17510;SDS011;8873;48.818;9.422;2023-06-14T01:18:04;8.38;;;4.03;;
17510;SDS011;8873;48.818;9.422;2023-06-14T01:20:33;6.50;;;3.95;;
17510;SDS011;8873;48.818;9.422;2023-06-14T01:23:05;5.95;;;4.00;;
17510;SDS011;8873;48.818;9.422;2023-06-14T01:25:33;6.80;;;3.80;;
17510;SDS011;8873;48.818;9.422;2023-06-14T01:28:02;5.55;;;3.80;;
17510;SDS011;8873;48.818;9.422;2023-06-14T01:30:36;7.65;;;3.65;;
17510;SDS011;8873;48.818;9.422;2023-06-14T01:33:04;6.75;;;4.10;;
17510;SDS011;8873;48.818;9.422;2023-06-14T01:35:37;7.32;;;4.38;;
17510;SDS011;8873;48.818;9.422;2023-06-14T01:38:07;8.70;;;4.20;;
17510;SDS011;8873;48.818;9.422;2023-06-14T01:40:35;5.72;;;3.70;;
17510;SDS011;8873;48.818;9.422;2023-06-14T01:43:03;6.05;;;4.05;;
17510;SDS011;8873;48.818;9.422;2023-06-14T01:45:31;9.35;;;3.72;;
17510;SDS011;8873;48.818;9.422;2023-06-14T01:47:59;7.30;;;4.13;;
17510;SDS011;8873;48.818;9.422;2023-06-14T01:50:28;5.50;;;3.65;;
17510;SDS011;8873;48.818;9.422;2023-06-14T01:52:57;4.53;;;3.97;;
17510;SDS011;8873;48.818;9.422;2023-06-14T01:55:26;6.38;;;4.45;;
17510;SDS011;8873;48.818;9.422;2023-06-14T01:57:53;5.18;;;4.05;;
17510;SDS011;8873;48.818;9.422;2023-06-14T02:00:22;6.93;;;4.60;;
17510;SDS011;8873;48.818;9.422;2023-06-14T02:02:49;6.70;;;3.92;;
17510;SDS011;8873;48.818;9.422;2023-06-14T02:05:17;5.70;;;4.40;;
17510;SDS011;8873;48.818;9.422;2023-06-14T02:07:46;7.28;;;3.97;;
17510;SDS011;8873;48.818;9.422;2023-06-14T02:10:14;4.57;;;3.70;;
17510;SDS011;8873;48.818;9.422;2023-06-14T02:12:43;5.75;;;4.20;;
17510;SDS011;8873;48.818;9.422;2023-06-14T02:15:11;7.53;;;3.78;;
17510;SDS011;8873;48.818;9.422;2023-06-14T02:17:43;5.63;;;3.92;;
17510;SDS011;8873;48.818;9.422;2023-06-14T02:20:11;11.07;;;4.90;;
17510;SDS011;8873;48.818;9.422;2023-06-14T02:22:39;6.30;;;4.05;;
17510;SDS011;8873;48.818;9.422;2023-06-14T02:25:07;7.07;;;4.60;;
17510;SDS011;8873;48.818;9.422;2023-06-14T02:27:35;4.50;;;3.80;;
17510;SDS011;8873;48.818;9.422;2023-06-14T02:30:04;4.65;;;3.70;;
17510;SDS011;8873;48.818;9.422;2023-06-14T02:32:32;7.22;;;4.60;;
17510;SDS011;8873;48.818;9.422;2023-06-14T02:35:00;7.82;;;4.28;;
17510;SDS011;8873;48.818;9.422;2023-06-14T02:37:28;6.90;;;4.10;;
17510;SDS011;8873;48.818;9.422;2023-06-14T02:39:55;4.25;;;3.67;;
17510;SDS011;8873;48.818;9.422;2023-06-14T02:42:23;6.22;;;4.38;;
17510;SDS011;8873;48.818;9.422;2023-06-14T02:44:50;4.88;;;4.10;;
17510;SDS011;8873;48.818;9.422;2023-06-14T02:47:19;6.85;;;4.40;;
17510;SDS011;8873;48.818;9.422;2023-06-14T02:49:47;5.72;;;4.10;;
17510;SDS011;8873;48.818;9.422;2023-06-14T02:52:14;5.22;;;4.25;;
17510;SDS011;8873;48.818;9.422;2023-06-14T02:54:42;6.90;;;3.88;;
17510;SDS011;8873;48.818;9.422;2023-06-14T02:57:09;6.05;;;4.30;;
17510;SDS011;8873;48.818;9.422;2023-06-14T02:59:37;8.63;;;4.20;;
17510;SDS011;8873;48.818;9.422;2023-06-14T03:02:05;7.53;;;4.55;;
17510;SDS011;8873;48.818;9.422;2023-06-14T03:04:34;5.32;;;3.90;;
17510;SDS011;8873;48.818;9.422;2023-06-14T03:07:04;6.38;;;4.32;;
17510;SDS011;8873;48.818;9.422;2023-06-14T03:09:35;7.40;;;4.55;;
17510;SDS011;8873;48.818;9.422;2023-06-14T03:12:04;5.72;;;4.40;;
17510;SDS011;8873;48.818;9.422;2023-06-14T03:14:35;9.65;;;4.65;;
17510;SDS011;8873;48.818;9.422;2023-06-14T03:17:03;7.60;;;4.45;;
17510;SDS011;8873;48.818;9.422;2023-06-14T03:19:31;5.68;;;4.57;;
17510;SDS011;8873;48.818;9.422;2023-06-14T03:22:00;6.05;;;4.03;;
17510;SDS011;8873;48.818;9.422;2023-06-14T03:24:28;9.40;;;4.70;;
17510;SDS011;8873;48.818;9.422;2023-06-14T03:27:03;5.93;;;4.22;;
17510;SDS011;8873;48.818;9.422;2023-06-14T03:29:30;7.88;;;4.45;;
17510;SDS011;8873;48.818;9.422;2023-06-14T03:31:58;8.75;;;4.90;;
17510;SDS011;8873;48.818;9.422;2023-06-14T03:34:26;8.60;;;4.97;;
17510;SDS011;8873;48.818;9.422;2023-06-14T03:36:54;7.90;;;4.82;;
17510;SDS011;8873;48.818;9.422;2023-06-14T03:39:23;6.03;;;4.38;;
17510;SDS011;8873;48.818;9.422;2023-06-14T03:41:50;7.13;;;4.43;;
17510;SDS011;8873;48.818;9.422;2023-06-14T03:44:18;5.93;;;4.25;;
17510;SDS011;8873;48.818;9.422;2023-06-14T03:46:46;9.82;;;4.70;;
17510;SDS011;8873;48.818;9.422;2023-06-14T03:49:14;6.15;;;4.32;;
17510;SDS011;8873;48.818;9.422;2023-06-14T03:51:43;8.52;;;4.78;;
17510;SDS011;8873;48.818;9.422;2023-06-14T03:54:11;7.50;;;4.53;;
17510;SDS011;8873;48.818;9.422;2023-06-14T03:56:59;8.82;;;4.45;;
17510;SDS011;8873;48.818;9.422;2023-06-14T03:59:27;5.82;;;3.80;;
17510;SDS011;8873;48.818;9.422;2023-06-14T04:01:55;6.43;;;4.10;;
17510;SDS011;8873;48.818;9.422;2023-06-14T04:04:22;6.90;;;4.63;;
17510;SDS011;8873;48.818;9.422;2023-06-14T04:06:55;7.03;;;4.68;;
17510;SDS011;8873;48.818;9.422;2023-06-14T04:09:25;7.72;;;4.80;;
17510;SDS011;8873;48.818;9.422;2023-06-14T04:11:52;5.93;;;4.15;;
17510;SDS011;8873;48.818;9.422;2023-06-14T04:14:21;6.47;;;3.88;;
17510;SDS011;8873;48.818;9.422;2023-06-14T04:16:49;11.77;;;4.32;;
17510;SDS011;8873;48.818;9.422;2023-06-14T04:19:17;6.18;;;4.50;;
17510;SDS011;8873;48.818;9.422;2023-06-14T04:21:44;9.73;;;4.78;;
17510;SDS011;8873;48.818;9.422;2023-06-14T04:24:12;6.30;;;4.40;;
17510;SDS011;8873;48.818;9.422;2023-06-14T04:26:41;6.28;;;4.45;;
17510;SDS011;8873;48.818;9.422;2023-06-14T04:29:11;5.72;;;4.47;;
17510;SDS011;8873;48.818;9.422;2023-06-14T04:31:41;7.38;;;4.85;;
17510;SDS011;8873;48.818;9.422;2023-06-14T04:34:10;6.70;;;4.68;;
17510;SDS011;8873;48.818;9.422;2023-06-14T04:36:43;7.97;;;4.78;;
17510;SDS011;8873;48.818;9.422;2023-06-14T04:39:15;8.82;;;4.97;;
17510;SDS011;8873;48.818;9.422;2023-06-14T04:41:44;6.30;;;4.38;;
17510;SDS011;8873;48.818;9.422;2023-06-14T04:44:14;9.43;;;4.72;;
17510;SDS011;8873;48.818;9.422;2023-06-14T04:46:44;7.97;;;4.63;;
17510;SDS011;8873;48.818;9.422;2023-06-14T04:49:13;6.40;;;4.82;;
17510;SDS011;8873;48.818;9.422;2023-06-14T04:51:41;10.43;;;4.60;;
17510;SDS011;8873;48.818;9.422;2023-06-14T04:54:09;9.35;;;5.10;;
17510;SDS011;8873;48.818;9.422;2023-06-14T04:56:40;6.82;;;5.07;;
17510;SDS011;8873;48.818;9.422;2023-06-14T04:59:08;7.28;;;4.95;;
17510;SDS011;8873;48.818;9.422;2023-06-14T05:01:39;8.68;;;4.45;;
17510;SDS011;8873;48.818;9.422;2023-06-14T05:04:08;8.73;;;4.88;;
17510;SDS011;8873;48.818;9.422;2023-06-14T05:06:36;13.68;;;4.97;;
17510;SDS011;8873;48.818;9.422;2023-06-14T05:09:04;7.85;;;5.30;;
17510;SDS011;8873;48.818;9.422;2023-06-14T05:11:32;12.05;;;5.80;;
17510;SDS011;8873;48.818;9.422;2023-06-14T05:13:59;7.25;;;4.75;;
17510;SDS011;8873;48.818;9.422;2023-06-14T05:16:27;6.43;;;4.55;;
17510;SDS011;8873;48.818;9.422;2023-06-14T05:18:55;6.85;;;4.50;;
17510;SDS011;8873;48.818;9.422;2023-06-14T05:21:25;7.50;;;4.82;;
17510;SDS011;8873;48.818;9.422;2023-06-14T05:23:53;9.23;;;4.35;;
17510;SDS011;8873;48.818;9.422;2023-06-14T05:26:20;6.70;;;4.53;;
17510;SDS011;8873;48.818;9.422;2023-06-14T05:28:49;6.97;;;4.18;;
17510;SDS011;8873;48.818;9.422;2023-06-14T05:31:19;6.20;;;4.43;;
17510;SDS011;8873;48.818;9.422;2023-06-14T05:33:46;6.95;;;4.32;;
17510;SDS011;8873;48.818;9.422;2023-06-14T05:36:14;9.82;;;5.30;;
17510;SDS011;8873;48.818;9.422;2023-06-14T05:38:43;9.02;;;4.72;;
17510;SDS011;8873;48.818;9.422;2023-06-14T05:41:11;8.30;;;4.43;;
17510;SDS011;8873;48.818;9.422;2023-06-14T05:43:38;7.43;;;4.93;;
17510;SDS011;8873;48.818;9.422;2023-06-14T05:46:06;4.93;;;4.25;;
17510;SDS011;8873;48.818;9.422;2023-06-14T05:48:33;8.93;;;4.45;;
17510;SDS011;8873;48.818;9.422;2023-06-14T05:51:01;5.82;;;4.55;;
17510;SDS011;8873;48.818;9.422;2023-06-14T05:53:29;6.68;;;4.43;;
17510;SDS011;8873;48.818;9.422;2023-06-14T05:55:57;12.75;;;4.72;;
17510;SDS011;8873;48.818;9.422;2023-06-14T05:58:25;6.68;;;4.40;;
17510;SDS011;8873;48.818;9.422;2023-06-14T06:00:53;8.52;;;4.75;;
17510;SDS011;8873;48.818;9.422;2023-06-14T06:03:20;6.70;;;4.65;;
17510;SDS011;8873;48.818;9.422;2023-06-14T06:05:52;6.25;;;4.20;;
17510;SDS011;8873;48.818;9.422;2023-06-14T06:08:20;6.20;;;4.78;;
17510;SDS011;8873;48.818;9.422;2023-06-14T06:10:47;6.20;;;4.45;;
17510;SDS011;8873;48.818;9.422;2023-06-14T06:13:16;7.32;;;4.88;;
17510;SDS011;8873;48.818;9.422;2023-06-14T06:15:43;5.97;;;4.25;;
17510;SDS011;8873;48.818;9.422;2023-06-14T06:18:12;7.72;;;4.50;;
17510;SDS011;8873;48.818;9.422;2023-06-14T06:20:39;6.60;;;4.32;;
17510;SDS011;8873;48.818;9.422;2023-06-14T06:23:07;8.15;;;4.63;;
17510;SDS011;8873;48.818;9.422;2023-06-14T06:25:36;5.13;;;4.25;;
17510;SDS011;8873;48.818;9.422;2023-06-14T06:28:03;5.05;;;4.35;;
17510;SDS011;8873;48.818;9.422;2023-06-14T06:30:32;6.05;;;4.38;;
17510;SDS011;8873;48.818;9.422;2023-06-14T06:32:59;5.45;;;4.20;;
17510;SDS011;8873;48.818;9.422;2023-06-14T06:35:27;6.43;;;4.50;;
17510;SDS011;8873;48.818;9.422;2023-06-14T06:37:56;6.60;;;4.30;;
17510;SDS011;8873;48.818;9.422;2023-06-14T06:40:25;7.13;;;4.57;;
17510;SDS011;8873;48.818;9.422;2023-06-14T06:42:53;6.65;;;4.43;;
17510;SDS011;8873;48.818;9.422;2023-06-14T06:45:21;5.68;;;4.07;;
17510;SDS011;8873;48.818;9.422;2023-06-14T06:47:53;6.43;;;4.30;;
17510;SDS011;8873;48.818;9.422;2023-06-14T06:50:21;6.45;;;4.22;;
17510;SDS011;8873;48.818;9.422;2023-06-14T06:52:51;6.00;;;4.13;;
17510;SDS011;8873;48.818;9.422;2023-06-14T06:55:19;4.88;;;4.38;;
17510;SDS011;8873;48.818;9.422;2023-06-14T06:57:46;4.90;;;4.20;;
17510;SDS011;8873;48.818;9.422;2023-06-14T07:00:16;4.85;;;4.07;;
17510;SDS011;8873;48.818;9.422;2023-06-14T07:02:44;6.07;;;4.15;;
17510;SDS011;8873;48.818;9.422;2023-06-14T07:05:13;7.57;;;4.70;;
17510;SDS011;8873;48.818;9.422;2023-06-14T07:07:41;6.68;;;4.80;;
17510;SDS011;8873;48.818;9.422;2023-06-14T07:10:09;5.13;;;4.07;;
17510;SDS011;8873;48.818;9.422;2023-06-14T07:12:37;5.90;;;4.00;;
17510;SDS011;8873;48.818;9.422;2023-06-14T07:15:06;5.88;;;4.43;;
17510;SDS011;8873;48.818;9.422;2023-06-14T07:17:35;7.22;;;4.95;;
17510;SDS011;8873;48.818;9.422;2023-06-14T07:20:03;5.15;;;4.65;;
17510;SDS011;8873;48.818;9.422;2023-06-14T07:22:36;8.30;;;4.45;;
17510;SDS011;8873;48.818;9.422;2023-06-14T07:25:03;7.15;;;4.32;;
17510;SDS011;8873;48.818;9.422;2023-06-14T07:27:31;7.47;;;3.95;;
17510;SDS011;8873;48.818;9.422;2023-06-14T07:29:59;6.70;;;4.32;;
17510;SDS011;8873;48.818;9.422;2023-06-14T07:32:26;7.00;;;4.13;;
17510;SDS011;8873;48.818;9.422;2023-06-14T07:34:54;6.70;;;4.50;;
17510;SDS011;8873;48.818;9.422;2023-06-14T07:37:24;6.15;;;4.03;;
17510;SDS011;8873;48.818;9.422;2023-06-14T07:39:53;7.85;;;3.90;;
17510;SDS011;8873;48.818;9.422;2023-06-14T07:42:21;3.85;;;3.55;;
17510;SDS011;8873;48.818;9.422;2023-06-14T07:44:48;6.85;;;4.30;;
17510;SDS011;8873;48.818;9.422;2023-06-14T07:47:17;4.78;;;3.80;;
17510;SDS011;8873;48.818;9.422;2023-06-14T07:49:44;5.32;;;4.30;;
17510;SDS011;8873;48.818;9.422;2023-06-14T07:52:12;6.85;;;3.60;;
17510;SDS011;8873;48.818;9.422;2023-06-14T07:54:39;5.93;;;3.92;;
17510;SDS011;8873;48.818;9.422;2023-06-14T07:57:08;4.53;;;4.10;;
17510;SDS011;8873;48.818;9.422;2023-06-14T07:59:36;6.82;;;4.32;;
17510;SDS011;8873;48.818;9.422;2023-06-14T08:02:04;5.93;;;3.78;;
17510;SDS011;8873;48.818;9.422;2023-06-14T08:04:31;4.63;;;3.53;;
17510;SDS011;8873;48.818;9.422;2023-06-14T08:06:59;7.32;;;3.90;;
17510;SDS011;8873;48.818;9.422;2023-06-14T08:09:27;8.75;;;3.70;;
17510;SDS011;8873;48.818;9.422;2023-06-14T08:11:55;7.47;;;3.42;;
17510;SDS011;8873;48.818;9.422;2023-06-14T08:14:24;4.60;;;3.33;;
17510;SDS011;8873;48.818;9.422;2023-06-14T08:16:51;4.15;;;3.70;;
17510;SDS011;8873;48.818;9.422;2023-06-14T08:19:20;5.95;;;3.58;;
17510;SDS011;8873;48.818;9.422;2023-06-14T08:21:47;3.88;;;3.58;;
17510;SDS011;8873;48.818;9.422;2023-06-14T08:24:15;4.20;;;3.80;;
17510;SDS011;8873;48.818;9.422;2023-06-14T08:26:43;3.78;;;3.38;;
17510;SDS011;8873;48.818;9.422;2023-06-14T08:29:13;5.15;;;3.80;;
17510;SDS011;8873;48.818;9.422;2023-06-14T08:31:42;3.67;;;3.38;;
17510;SDS011;8873;48.818;9.422;2023-06-14T08:34:10;6.05;;;3.65;;
17510;SDS011;8873;48.818;9.422;2023-06-14T08:36:37;4.40;;;3.55;;
17510;SDS011;8873;48.818;9.422;2023-06-14T08:39:05;5.03;;;3.25;;
17510;SDS011;8873;48.818;9.422;2023-06-14T08:41:35;6.45;;;3.58;;
17510;SDS011;8873;48.818;9.422;2023-06-14T08:44:04;8.77;;;3.70;;
17510;SDS011;8873;48.818;9.422;2023-06-14T08:46:32;3.97;;;3.55;;
17510;SDS011;8873;48.818;9.422;2023-06-14T08:49:02;10.73;;;4.30;;
17510;SDS011;8873;48.818;9.422;2023-06-14T08:51:31;4.38;;;3.08;;
17510;SDS011;8873;48.818;9.422;2023-06-14T08:54:00;3.72;;;3.42;;
17510;SDS011;8873;48.818;9.422;2023-06-14T08:56:30;3.80;;;3.50;;
17510;SDS011;8873;48.818;9.422;2023-06-14T08:59:00;3.25;;;2.97;;
17510;SDS011;8873;48.818;9.422;2023-06-14T09:01:30;6.32;;;3.70;;
17510;SDS011;8873;48.818;9.422;2023-06-14T09:03:58;3.38;;;3.17;;
17510;SDS011;8873;48.818;9.422;2023-06-14T09:06:27;7.68;;;3.30;;
17510;SDS011;8873;48.818;9.422;2023-06-14T09:08:55;8.50;;;3.42;;
17510;SDS011;8873;48.818;9.422;2023-06-14T09:11:24;4.57;;;3.25;;
17510;SDS011;8873;48.818;9.422;2023-06-14T09:13:52;5.43;;;3.30;;
17510;SDS011;8873;48.818;9.422;2023-06-14T09:16:20;4.70;;;3.20;;
17510;SDS011;8873;48.818;9.422;2023-06-14T09:18:50;4.55;;;3.72;;
17510;SDS011;8873;48.818;9.422;2023-06-14T09:21:18;4.10;;;3.40;;
17510;SDS011;8873;48.818;9.422;2023-06-14T09:23:48;6.43;;;4.10;;
17510;SDS011;8873;48.818;9.422;2023-06-14T09:26:16;3.15;;;2.92;;
17510;SDS011;8873;48.818;9.422;2023-06-14T09:28:46;5.15;;;4.05;;
17510;SDS011;8873;48.818;9.422;2023-06-14T09:31:15;3.95;;;3.63;;
17510;SDS011;8873;48.818;9.422;2023-06-14T09:33:43;5.68;;;3.42;;
17510;SDS011;8873;48.818;9.422;2023-06-14T09:36:14;3.88;;;3.42;;
17510;SDS011;8873;48.818;9.422;2023-06-14T09:38:52;4.07;;;3.50;;
17510;SDS011;8873;48.818;9.422;2023-06-14T09:41:20;6.82;;;3.50;;
17510;SDS011;8873;48.818;9.422;2023-06-14T09:43:48;4.75;;;3.42;;
17510;SDS011;8873;48.818;9.422;2023-06-14T09:46:16;3.90;;;3.60;;
17510;SDS011;8873;48.818;9.422;2023-06-14T09:48:43;4.03;;;3.63;;
17510;SDS011;8873;48.818;9.422;2023-06-14T09:51:11;4.15;;;3.55;;
17510;SDS011;8873;48.818;9.422;2023-06-14T09:53:41;5.10;;;3.13;;
17510;SDS011;8873;48.818;9.422;2023-06-14T09:56:11;4.70;;;3.33;;
17510;SDS011;8873;48.818;9.422;2023-06-14T09:58:39;5.07;;;3.22;;
17510;SDS011;8873;48.818;9.422;2023-06-14T10:01:15;4.53;;;3.58;;
17510;SDS011;8873;48.818;9.422;2023-06-14T10:03:44;4.80;;;3.50;;
17510;SDS011;8873;48.818;9.422;2023-06-14T10:06:15;6.38;;;3.25;;
17510;SDS011;8873;48.818;9.422;2023-06-14T10:08:43;3.67;;;3.38;;
17510;SDS011;8873;48.818;9.422;2023-06-14T10:11:14;3.47;;;3.13;;
17510;SDS011;8873;48.818;9.422;2023-06-14T10:13:41;3.90;;;3.13;;
17510;SDS011;8873;48.818;9.422;2023-06-14T10:16:10;13.07;;;4.47;;
17510;SDS011;8873;48.818;9.422;2023-06-14T10:18:43;8.15;;;4.22;;
17510;SDS011;8873;48.818;9.422;2023-06-14T10:21:14;3.55;;;3.08;;
17510;SDS011;8873;48.818;9.422;2023-06-14T10:23:44;5.53;;;3.60;;
17510;SDS011;8873;48.818;9.422;2023-06-14T10:26:20;4.13;;;3.70;;
17510;SDS011;8873;48.818;9.422;2023-06-14T10:28:55;4.53;;;3.22;;
17510;SDS011;8873;48.818;9.422;2023-06-14T10:31:23;5.45;;;3.47;;
17510;SDS011;8873;48.818;9.422;2023-06-14T10:34:06;3.50;;;3.20;;
17510;SDS011;8873;48.818;9.422;2023-06-14T10:36:34;3.97;;;3.60;;
17510;SDS011;8873;48.818;9.422;2023-06-14T10:39:04;7.45;;;3.15;;
17510;SDS011;8873;48.818;9.422;2023-06-14T10:41:34;3.13;;;2.90;;
17510;SDS011;8873;48.818;9.422;2023-06-14T10:46:53;4.93;;;3.65;;
17510;SDS011;8873;48.818;9.422;2023-06-14T10:49:36;3.30;;;3.00;;
17510;SDS011;8873;48.818;9.422;2023-06-14T10:52:05;4.45;;;3.50;;
17510;SDS011;8873;48.818;9.422;2023-06-14T10:54:32;4.55;;;3.10;;
17510;SDS011;8873;48.818;9.422;2023-06-14T10:57:01;5.45;;;3.25;;
17510;SDS011;8873;48.818;9.422;2023-06-14T10:59:29;3.63;;;3.33;;
17510;SDS011;8873;48.818;9.422;2023-06-14T11:01:58;4.07;;;3.00;;
17510;SDS011;8873;48.818;9.422;2023-06-14T11:04:30;3.50;;;2.95;;
17510;SDS011;8873;48.818;9.422;2023-06-14T11:07:05;5.45;;;3.70;;
17510;SDS011;8873;48.818;9.422;2023-06-14T11:12:30;3.95;;;3.65;;
17510;SDS011;8873;48.818;9.422;2023-06-14T11:14:59;5.43;;;3.22;;
17510;SDS011;8873;48.818;9.422;2023-06-14T11:17:27;3.33;;;3.08;;
17510;SDS011;8873;48.818;9.422;2023-06-14T11:20:09;5.63;;;3.97;;
17510;SDS011;8873;48.818;9.422;2023-06-14T11:22:40;3.10;;;2.90;;
17510;SDS011;8873;48.818;9.422;2023-06-14T11:25:08;4.97;;;3.17;;
17510;SDS011;8873;48.818;9.422;2023-06-14T11:27:37;9.95;;;3.90;;
17510;SDS011;8873;48.818;9.422;2023-06-14T11:30:07;13.32;;;5.80;;
17510;SDS011;8873;48.818;9.422;2023-06-14T11:32:35;29.55;;;10.70;;
17510;SDS011;8873;48.818;9.422;2023-06-14T11:35:05;5.13;;;3.78;;
17510;SDS011;8873;48.818;9.422;2023-06-14T11:37:34;3.63;;;3.25;;
17510;SDS011;8873;48.818;9.422;2023-06-14T11:40:03;3.75;;;3.40;;
17510;SDS011;8873;48.818;9.422;2023-06-14T11:42:34;4.50;;;3.17;;
17510;SDS011;8873;48.818;9.422;2023-06-14T11:45:04;3.45;;;3.15;;
17510;SDS011;8873;48.818;9.422;2023-06-14T11:47:35;3.63;;;3.33;;
17510;SDS011;8873;48.818;9.422;2023-06-14T11:50:05;4.00;;;3.60;;
17510;SDS011;8873;48.818;9.422;2023-06-14T11:52:34;5.63;;;3.58;;
17510;SDS011;8873;48.818;9.422;2023-06-14T11:55:05;3.80;;;3.50;;
17510;SDS011;8873;48.818;9.422;2023-06-14T11:57:33;3.60;;;3.30;;
17510;SDS011;8873;48.818;9.422;2023-06-14T12:00:05;3.58;;;2.97;;
17510;SDS011;8873;48.818;9.422;2023-06-14T12:02:41;3.63;;;3.28;;
17510;SDS011;8873;48.818;9.422;2023-06-14T12:05:09;3.55;;;3.25;;
17510;SDS011;8873;48.818;9.422;2023-06-14T12:07:37;3.78;;;3.47;;
17510;SDS011;8873;48.818;9.422;2023-06-14T12:10:07;5.50;;;3.60;;
17510;SDS011;8873;48.818;9.422;2023-06-14T12:12:35;3.53;;;3.30;;
17510;SDS011;8873;48.818;9.422;2023-06-14T12:15:04;6.00;;;3.80;;
17510;SDS011;8873;48.818;9.422;2023-06-14T12:17:33;3.65;;;3.35;;
17510;SDS011;8873;48.818;9.422;2023-06-14T12:20:04;3.30;;;3.10;;
17510;SDS011;8873;48.818;9.422;2023-06-14T12:22:34;5.70;;;3.13;;
17510;SDS011;8873;48.818;9.422;2023-06-14T12:25:02;3.50;;;3.20;;
17510;SDS011;8873;48.818;9.422;2023-06-14T12:27:30;4.68;;;3.50;;
17510;SDS011;8873;48.818;9.422;2023-06-14T12:30:01;3.55;;;3.25;;
17510;SDS011;8873;48.818;9.422;2023-06-14T12:32:30;3.58;;;3.30;;
17510;SDS011;8873;48.818;9.422;2023-06-14T12:34:58;3.17;;;2.90;;
17510;SDS011;8873;48.818;9.422;2023-06-14T12:37:25;5.95;;;3.75;;
17510;SDS011;8873;48.818;9.422;2023-06-14T12:39:53;4.20;;;2.83;;
17510;SDS011;8873;48.818;9.422;2023-06-14T12:42:20;3.40;;;3.10;;
17510;SDS011;8873;48.818;9.422;2023-06-14T12:44:48;5.47;;;3.40;;
17510;SDS011;8873;48.818;9.422;2023-06-14T12:47:15;3.70;;;3.22;;
17510;SDS011;8873;48.818;9.422;2023-06-14T12:49:44;3.90;;;2.90;;
17510;SDS011;8873;48.818;9.422;2023-06-14T12:52:12;4.47;;;3.33;;
17510;SDS011;8873;48.818;9.422;2023-06-14T12:54:40;4.40;;;3.22;;
17510;SDS011;8873;48.818;9.422;2023-06-14T12:57:07;3.88;;;3.35;;
17510;SDS011;8873;48.818;9.422;2023-06-14T12:59:36;4.72;;;3.28;;
17510;SDS011;8873;48.818;9.422;2023-06-14T13:02:13;3.95;;;3.40;;
17510;SDS011;8873;48.818;9.422;2023-06-14T13:04:41;4.07;;;3.00;;
17510;SDS011;8873;48.818;9.422;2023-06-14T13:07:10;4.40;;;3.80;;
17510;SDS011;8873;48.818;9.422;2023-06-14T13:09:37;23.25;;;4.53;;
17510;SDS011;8873;48.818;9.422;2023-06-14T13:12:05;5.32;;;3.92;;
17510;SDS011;8873;48.818;9.422;2023-06-14T13:14:33;7.63;;;3.30;;
17510;SDS011;8873;48.818;9.422;2023-06-14T13:17:01;3.83;;;3.30;;
17510;SDS011;8873;48.818;9.422;2023-06-14T13:19:29;4.00;;;3.60;;
17510;SDS011;8873;48.818;9.422;2023-06-14T13:21:56;3.40;;;3.20;;
17510;SDS011;8873;48.818;9.422;2023-06-14T13:24:25;4.10;;;3.10;;
17510;SDS011;8873;48.818;9.422;2023-06-14T13:26:53;4.00;;;3.20;;
17510;SDS011;8873;48.818;9.422;2023-06-14T13:29:20;5.35;;;3.33;;
17510;SDS011;8873;48.818;9.422;2023-06-14T13:31:48;6.55;;;3.55;;
17510;SDS011;8873;48.818;9.422;2023-06-14T13:34:16;4.55;;;3.17;;
17510;SDS011;8873;48.818;9.422;2023-06-14T13:36:43;3.55;;;3.25;;
17510;SDS011;8873;48.818;9.422;2023-06-14T13:39:11;3.88;;;3.50;;
17510;SDS011;8873;48.818;9.422;2023-06-14T13:41:40;3.80;;;3.42;;
17510;SDS011;8873;48.818;9.422;2023-06-14T13:44:08;3.70;;;3.40;;
17510;SDS011;8873;48.818;9.422;2023-06-14T13:46:41;3.40;;;3.20;;
17510;SDS011;8873;48.818;9.422;2023-06-14T13:49:09;5.90;;;3.95;;
17510;SDS011;8873;48.818;9.422;2023-06-14T13:51:38;4.20;;;3.30;;
17510;SDS011;8873;48.818;9.422;2023-06-14T13:54:06;3.45;;;3.25;;
17510;SDS011;8873;48.818;9.422;2023-06-14T13:56:34;7.28;;;3.53;;
17510;SDS011;8873;48.818;9.422;2023-06-14T13:59:03;3.20;;;3.00;;
17510;SDS011;8873;48.818;9.422;2023-06-14T14:01:31;3.75;;;3.33;;
17510;SDS011;8873;48.818;9.422;2023-06-14T14:03:58;3.50;;;3.00;;
17510;SDS011;8873;48.818;9.422;2023-06-14T14:06:27;4.57;;;3.47;;
17510;SDS011;8873;48.818;9.422;2023-06-14T14:08:54;3.47;;;3.17;;
17510;SDS011;8873;48.818;9.422;2023-06-14T14:11:22;3.78;;;3.35;;
17510;SDS011;8873;48.818;9.422;2023-06-14T14:13:49;3.35;;;3.05;;
17510;SDS011;8873;48.818;9.422;2023-06-14T14:16:18;5.38;;;3.40;;
17510;SDS011;8873;48.818;9.422;2023-06-14T14:18:46;3.80;;;3.50;;
17510;SDS011;8873;48.818;9.422;2023-06-14T14:21:14;3.85;;;3.30;;
17510;SDS011;8873;48.818;9.422;2023-06-14T14:23:41;3.80;;;3.50;;
17510;SDS011;8873;48.818;9.422;2023-06-14T14:26:10;4.22;;;3.65;;
17510;SDS011;8873;48.818;9.422;2023-06-14T14:28:37;5.30;;;3.63;;
17510;SDS011;8873;48.818;9.422;2023-06-14T14:31:05;3.47;;;3.15;;
17510;SDS011;8873;48.818;9.422;2023-06-14T14:33:35;4.25;;;2.92;;
17510;SDS011;8873;48.818;9.422;2023-06-14T14:36:02;4.00;;;3.40;;
17510;SDS011;8873;48.818;9.422;2023-06-14T14:38:30;4.32;;;3.33;;
17510;SDS011;8873;48.818;9.422;2023-06-14T14:40:58;3.83;;;3.42;;
17510;SDS011;8873;48.818;9.422;2023-06-14T14:43:26;7.10;;;3.22;;
17510;SDS011;8873;48.818;9.422;2023-06-14T14:45:57;3.20;;;2.92;;
17510;SDS011;8873;48.818;9.422;2023-06-14T14:48:24;3.25;;;2.95;;
17510;SDS011;8873;48.818;9.422;2023-06-14T14:50:53;5.78;;;3.25;;
17510;SDS011;8873;48.818;9.422;2023-06-14T14:53:21;3.67;;;3.38;;
17510;SDS011;8873;48.818;9.422;2023-06-14T14:55:48;3.80;;;3.22;;
17510;SDS011;8873;48.818;9.422;2023-06-14T14:58:16;3.40;;;3.10;;
17510;SDS011;8873;48.818;9.422;2023-06-14T15:00:44;3.70;;;3.40;;
17510;SDS011;8873;48.818;9.422;2023-06-14T15:03:12;3.70;;;3.40;;
17510;SDS011;8873;48.818;9.422;2023-06-14T15:05:40;4.10;;;2.97;;
17510;SDS011;8873;48.818;9.422;2023-06-14T15:08:09;3.53;;;3.33;;
17510;SDS011;8873;48.818;9.422;2023-06-14T15:10:38;5.15;;;3.20;;
17510;SDS011;8873;48.818;9.422;2023-06-14T15:13:08;5.05;;;3.33;;
17510;SDS011;8873;48.818;9.422;2023-06-14T15:15:35;3.50;;;3.28;;